createdAt,value
2023-04-01T00:00:39.984Z,1.85
2023-04-01T00:03:08.100Z,1.40
2023-04-01T00:05:35.992Z,1.67
2023-04-01T00:08:05.429Z,1.30
2023-04-01T00:10:33.272Z,1.00
2023-04-01T00:13:02.768Z,1.35
2023-04-01T00:15:31.094Z,1.10
2023-04-01T00:17:59.862Z,1.27
2023-04-01T00:20:27.849Z,1.92
2023-04-01T00:22:55.998Z,1.35
2023-04-01T00:25:25.889Z,1.58
2023-04-01T00:27:53.797Z,1.40
2023-04-01T00:30:21.992Z,1.30
2023-04-01T00:32:53.693Z,0.90
2023-04-01T00:35:21.785Z,2.55
2023-04-01T00:37:50.220Z,1.42
2023-04-01T00:40:29.251Z,1.65
2023-04-01T00:42:57.534Z,1.60
2023-04-01T00:45:37.412Z,1.17
2023-04-01T00:48:10.926Z,1.98
2023-04-01T00:50:41.117Z,1.15
2023-04-01T00:53:10.018Z,1.83
2023-04-01T00:55:43.248Z,1.48
2023-04-01T00:58:16.731Z,1.17
2023-04-01T01:00:45.189Z,1.38
2023-04-01T01:03:13.686Z,1.02
2023-04-01T01:06:01.004Z,1.50
2023-04-01T01:08:41.735Z,1.33
2023-04-01T01:11:14.203Z,1.67
2023-04-01T01:13:50.289Z,1.08
2023-04-01T01:16:23.263Z,1.52
2023-04-01T01:18:59.204Z,1.25
2023-04-01T01:21:40.584Z,1.08
2023-04-01T01:24:36.548Z,0.93
2023-04-01T01:27:11.493Z,1.10
2023-04-01T01:30:12.253Z,1.10
2023-04-01T01:33:01.321Z,1.45
2023-04-01T01:35:35.049Z,1.10
2023-04-01T01:38:05.811Z,1.05
2023-04-01T01:40:35.424Z,1.55
2023-04-01T01:43:07.820Z,1.00
2023-04-01T01:45:39.593Z,1.17
2023-04-01T01:48:10.180Z,0.98
2023-04-01T01:50:41.331Z,0.90
2023-04-01T01:53:11.521Z,1.65
2023-04-01T01:55:41.516Z,1.05
2023-04-01T01:58:15.588Z,1.13
2023-04-01T02:00:48.346Z,1.00
2023-04-01T02:03:17.418Z,0.70
2023-04-01T02:05:47.038Z,1.67
2023-04-01T02:08:18.744Z,0.70
2023-04-01T02:10:51.843Z,0.80
2023-04-01T02:13:28.619Z,0.70
2023-04-01T02:16:01.936Z,0.90
2023-04-01T02:18:31.738Z,0.95
2023-04-01T02:21:01.994Z,0.60
2023-04-01T02:23:30.478Z,0.60
2023-04-01T02:25:58.365Z,0.63
2023-04-01T02:28:27.677Z,0.77
2023-04-01T02:30:55.747Z,0.60
2023-04-01T02:33:23.960Z,0.60
2023-04-01T02:35:52.506Z,0.40
2023-04-01T02:38:21.754Z,0.63
2023-04-01T02:40:51.872Z,0.70
2023-04-01T02:43:20.756Z,0.52
2023-04-01T02:45:48.620Z,0.63
2023-04-01T02:48:16.483Z,0.52
2023-04-01T02:50:44.325Z,0.60
2023-04-01T02:53:12.984Z,0.35
2023-04-01T02:55:42.161Z,0.40
2023-04-01T02:58:10.335Z,0.50
2023-04-01T03:00:38.518Z,0.88
2023-04-01T03:03:06.593Z,0.63
2023-04-01T03:05:34.918Z,0.65
2023-04-01T03:08:03.315Z,0.80
2023-04-01T03:10:31.171Z,0.50
2023-04-01T03:13:00.362Z,0.50
2023-04-01T03:15:28.275Z,0.70
2023-04-01T03:17:56.200Z,0.47
2023-04-01T03:20:24.106Z,0.60
2023-04-01T03:22:51.949Z,0.60
2023-04-01T03:25:20.440Z,0.70
2023-04-01T03:27:48.264Z,0.68
2023-04-01T03:30:17.806Z,0.50
2023-04-01T03:32:45.772Z,0.60
2023-04-01T03:35:13.708Z,0.70
2023-04-01T03:37:42.003Z,0.75
2023-04-01T03:40:10.923Z,0.70
2023-04-01T03:42:38.824Z,0.65
2023-04-01T03:45:07.710Z,0.60
2023-04-01T03:47:37.046Z,0.63
2023-04-01T03:50:05.501Z,0.57
2023-04-01T03:52:33.354Z,0.73
2023-04-01T03:55:01.656Z,0.60
2023-04-01T03:57:29.701Z,1.05
2023-04-01T03:59:57.650Z,0.77
2023-04-01T04:02:25.572Z,0.57
2023-04-01T04:04:54.784Z,0.68
2023-04-01T04:07:22.601Z,0.50
2023-04-01T04:09:50.433Z,0.98
2023-04-01T04:12:18.274Z,0.70
2023-04-01T04:14:46.215Z,0.55
2023-04-01T04:17:17.250Z,0.50
2023-04-01T04:19:45.663Z,0.70
2023-04-01T04:22:14.897Z,0.90
2023-04-01T04:24:42.733Z,0.50
2023-04-01T04:27:10.619Z,1.00
2023-04-01T04:29:38.450Z,1.77
2023-04-01T04:32:06.788Z,0.90
2023-04-01T04:34:34.870Z,0.85
2023-04-01T04:37:02.879Z,0.75
2023-04-01T04:39:32.073Z,0.50
2023-04-01T04:41:59.894Z,0.82
2023-04-01T04:44:27.816Z,0.95
2023-04-01T04:46:58.229Z,1.05
2023-04-01T04:49:27.011Z,0.95
2023-04-01T04:51:54.884Z,1.08
2023-04-01T04:54:22.784Z,1.80
2023-04-01T04:56:53.884Z,1.00
2023-04-01T04:59:21.809Z,1.30
2023-04-01T05:01:49.773Z,0.90
2023-04-01T05:04:17.829Z,1.98
2023-04-01T05:06:46.162Z,0.75
2023-04-01T05:09:14.115Z,1.20
2023-04-01T05:11:42.281Z,0.93
2023-04-01T05:14:16.113Z,1.25
2023-04-01T05:16:44.047Z,1.20
2023-04-01T05:19:12.015Z,1.00
2023-04-01T05:21:39.913Z,1.33
2023-04-01T05:24:10.074Z,1.70
2023-04-01T05:26:38.228Z,1.10
2023-04-01T05:29:06.299Z,0.82
2023-04-01T05:31:35.518Z,1.00
2023-04-01T05:34:03.465Z,0.75
2023-04-01T05:36:31.320Z,0.73
2023-04-01T05:38:59.293Z,1.00
2023-04-01T05:41:27.139Z,0.90
2023-04-01T05:43:55.035Z,1.08
2023-04-01T05:46:23.041Z,0.90
2023-04-01T05:48:52.260Z,1.65
2023-04-01T05:51:20.208Z,1.02
2023-04-01T05:53:48.085Z,1.10
2023-04-01T05:56:16.357Z,1.05
2023-04-01T05:58:44.189Z,1.10
2023-04-01T06:01:16.276Z,1.30
2023-04-01T06:03:44.883Z,0.90
2023-04-01T06:06:16.589Z,0.70
2023-04-01T06:08:45.278Z,0.77
2023-04-01T06:11:24.712Z,0.63
2023-04-01T06:14:11.928Z,1.10
2023-04-01T06:16:54.156Z,1.40
2023-04-01T06:19:30.554Z,1.27
2023-04-01T06:22:16.802Z,0.70
2023-04-01T06:25:07.209Z,1.20
2023-04-01T06:27:52.231Z,1.33
2023-04-01T06:30:38.764Z,0.60
2023-04-01T06:33:34.138Z,0.70
2023-04-01T06:36:24.522Z,0.85
2023-04-01T06:39:11.391Z,0.95
2023-04-01T06:41:59.684Z,0.85
2023-04-01T06:44:37.216Z,0.90
2023-04-01T06:47:16.741Z,0.90
2023-04-01T06:49:53.147Z,0.82
2023-04-01T06:52:28.365Z,0.90
2023-04-01T06:55:03.842Z,2.08
2023-04-01T06:57:36.248Z,1.08
2023-04-01T07:00:14.218Z,0.65
2023-04-01T07:02:48.249Z,0.90
2023-04-01T07:05:17.536Z,0.90
2023-04-01T07:07:49.408Z,0.63
2023-04-01T07:10:22.910Z,1.17
2023-04-01T07:12:54.629Z,0.80
2023-04-01T07:15:26.577Z,1.10
2023-04-01T07:17:57.644Z,1.00
2023-04-01T07:20:30.784Z,0.80
2023-04-01T07:23:00.538Z,0.80
2023-04-01T07:25:33.412Z,0.90
2023-04-01T07:28:05.840Z,0.98
2023-04-01T07:30:45.049Z,0.68
2023-04-01T07:33:18.640Z,0.85
2023-04-01T07:35:51.995Z,0.80
2023-04-01T07:38:30.587Z,0.75
2023-04-01T07:41:08.165Z,0.80
2023-04-01T07:43:48.237Z,1.00
2023-04-01T07:46:26.400Z,0.80
2023-04-01T07:51:31.770Z,0.90
2023-04-01T07:54:09.209Z,1.63
2023-04-01T07:56:43.607Z,1.00
2023-04-01T07:59:19.141Z,1.17
2023-04-01T08:01:52.012Z,0.90
2023-04-01T08:04:29.898Z,1.02
2023-04-01T08:07:08.527Z,1.42
2023-04-01T08:09:45.243Z,0.70
2023-04-01T08:12:29.438Z,1.33
2023-04-01T08:15:05.421Z,0.90
2023-04-01T08:17:41.627Z,0.90
2023-04-01T08:20:27.560Z,0.90
2023-04-01T08:23:02.626Z,1.02
2023-04-01T08:25:32.589Z,0.52
2023-04-01T08:28:10.497Z,1.13
2023-04-01T08:30:44.843Z,0.85
2023-04-01T08:33:17.193Z,0.90
2023-04-01T08:35:51.038Z,0.82
2023-04-01T08:38:23.757Z,1.42
2023-04-01T08:41:00.195Z,1.00
2023-04-01T08:44:01.359Z,1.33
2023-04-01T08:47:04.751Z,0.80
2023-04-01T08:49:55.999Z,0.80
2023-04-01T08:52:37.606Z,1.27
2023-04-01T08:55:29.893Z,0.70
2023-04-01T08:58:33.799Z,1.50
2023-04-01T09:01:15.928Z,0.80
2023-04-01T09:03:57.873Z,0.73
2023-04-01T09:06:42.343Z,0.90
2023-04-01T09:09:43.174Z,0.70
2023-04-01T09:12:46.882Z,0.63
2023-04-01T09:15:37.476Z,1.38
2023-04-01T09:18:22.230Z,0.52
2023-04-01T09:21:30.959Z,0.45
2023-04-01T09:24:30.542Z,0.50
2023-04-01T09:27:16.694Z,0.60
2023-04-01T09:30:03.150Z,0.50
2023-04-01T09:33:00.224Z,0.40
2023-04-01T09:35:41.838Z,0.57
2023-04-01T09:38:23.493Z,0.30
2023-04-01T09:40:58.266Z,0.30
2023-04-01T09:43:32.170Z,0.73
2023-04-01T09:46:11.367Z,0.40
2023-04-01T09:49:17.716Z,0.45
2023-04-01T09:51:56.202Z,0.50
2023-04-01T09:54:34.437Z,0.50
2023-04-01T10:00:31.633Z,0.50
2023-04-01T10:03:47.648Z,0.60
2023-04-01T10:06:59.371Z,0.40
2023-04-01T10:25:11.670Z,0.63
2023-04-01T10:28:01.958Z,0.40
2023-04-01T10:31:04.656Z,0.30
2023-04-01T10:34:15.546Z,0.50
2023-04-01T10:36:59.064Z,0.30
2023-04-01T10:40:00.495Z,0.30
2023-04-01T10:42:52.768Z,0.40
2023-04-01T10:45:57.750Z,0.40
2023-04-01T10:48:59.505Z,0.28
2023-04-01T10:52:11.467Z,0.20
2023-04-01T10:54:47.861Z,0.30
2023-04-01T10:57:49.948Z,0.30
2023-04-01T11:00:52.925Z,0.40
2023-04-01T11:03:58.834Z,0.45
2023-04-01T11:06:58.586Z,0.30
2023-04-01T11:09:59.170Z,0.30
2023-04-01T11:13:10.435Z,0.38
2023-04-01T11:15:55.151Z,0.30
2023-04-01T11:19:05.652Z,0.43
2023-04-01T11:21:54.576Z,0.22
2023-04-01T11:24:51.192Z,0.30
2023-04-01T11:27:39.749Z,0.20
2023-04-01T11:32:54.892Z,0.22
2023-04-01T11:36:01.700Z,0.30
2023-04-01T11:38:44.821Z,0.30
2023-04-01T11:41:24.706Z,0.20
2023-04-01T11:44:05.448Z,0.30
2023-04-01T11:46:46.408Z,0.20
2023-04-01T11:49:31.676Z,0.30
2023-04-01T11:52:18.834Z,0.30
2023-04-01T11:55:09.250Z,0.20
2023-04-01T11:57:52.999Z,0.30
2023-04-01T12:00:46.644Z,0.40
2023-04-01T12:03:35.520Z,0.30
2023-04-01T12:06:10.333Z,0.30
2023-04-01T12:08:48.516Z,0.30
2023-04-01T12:13:55.843Z,0.30
2023-04-01T12:16:47.873Z,0.35
2023-04-01T12:19:28.182Z,0.40
2023-04-01T12:22:11.192Z,0.30
2023-04-01T12:25:00.735Z,0.43
2023-04-01T12:27:54.294Z,0.55
2023-04-01T12:30:55.555Z,0.20
2023-04-01T12:34:03.001Z,0.35
2023-04-01T12:36:48.786Z,0.70
2023-04-01T12:39:51.404Z,1.08
2023-04-01T12:42:34.529Z,0.50
2023-04-01T12:45:23.873Z,0.30
2023-04-01T12:48:29.896Z,0.22
2023-04-01T12:51:22.910Z,0.30
2023-04-01T12:54:16.033Z,0.30
2023-04-01T12:56:52.889Z,0.25
2023-04-01T12:59:44.654Z,0.30
2023-04-01T13:02:21.856Z,0.20
2023-04-01T13:05:20.621Z,0.32
2023-04-01T13:08:17.065Z,0.30
2023-04-01T13:11:04.686Z,0.30
2023-04-01T13:14:30.772Z,0.30
2023-04-01T13:17:05.959Z,0.20
2023-04-01T13:19:39.672Z,0.30
2023-04-01T13:22:13.428Z,0.30
2023-04-01T13:24:48.536Z,0.30
2023-04-01T13:27:22.891Z,0.40
2023-04-01T13:30:04.071Z,0.40
2023-04-01T13:32:43.683Z,0.50
2023-04-01T13:35:34.715Z,0.50
2023-04-01T13:38:16.451Z,0.30
2023-04-01T13:41:03.078Z,0.38
2023-04-01T13:43:38.121Z,0.40
2023-04-01T13:46:27.721Z,0.40
2023-04-01T13:49:23.084Z,0.40
2023-04-01T13:52:14.120Z,0.43
2023-04-01T13:54:56.278Z,0.40
2023-04-01T13:57:42.238Z,0.30
2023-04-01T14:00:34.242Z,0.63
2023-04-01T14:03:20.902Z,0.32
2023-04-01T14:06:17.930Z,0.60
2023-04-01T14:09:12.022Z,0.30
2023-04-01T14:11:47.948Z,0.50
2023-04-01T14:14:23.500Z,0.38
2023-04-01T14:17:12.295Z,0.40
2023-04-01T14:22:31.192Z,0.50
2023-04-01T14:25:20.143Z,0.90
2023-04-01T14:27:56.996Z,0.50
2023-04-01T14:30:42.373Z,0.32
2023-04-01T14:33:27.400Z,0.50
2023-04-01T14:36:10.729Z,0.30
2023-04-01T14:38:49.819Z,0.40
2023-04-01T14:41:28.804Z,0.50
2023-04-01T14:44:18.522Z,0.30
2023-04-01T14:47:25.117Z,0.47
2023-04-01T14:49:56.956Z,0.43
2023-04-01T14:52:29.672Z,0.40
2023-04-01T14:54:59.562Z,0.30
2023-04-01T14:57:29.972Z,0.40
2023-04-01T15:00:03.376Z,0.70
2023-04-01T15:02:44.858Z,0.30
2023-04-01T15:05:21.570Z,0.40
2023-04-01T15:08:10.899Z,0.75
2023-04-01T15:10:56.959Z,0.32
2023-04-01T15:13:39.330Z,0.60
2023-04-01T15:16:15.897Z,0.40
2023-04-01T15:18:55.906Z,0.40
2023-04-01T15:21:46.133Z,0.70
2023-04-01T15:24:22.096Z,0.50
2023-04-01T15:27:04.155Z,0.52
2023-04-01T15:30:02.045Z,0.60
2023-04-01T15:32:42.207Z,0.50
2023-04-01T15:35:21.536Z,0.60
2023-04-01T15:37:55.866Z,0.50
2023-04-01T15:40:28.870Z,0.82
2023-04-01T15:43:06.011Z,0.80
2023-04-01T15:45:43.097Z,0.90
2023-04-01T15:48:43.828Z,0.77
2023-04-01T15:51:26.371Z,1.00
2023-04-01T15:54:21.103Z,1.02
2023-04-01T15:56:58.261Z,0.73
2023-04-01T15:59:54.075Z,1.13
2023-04-01T16:02:32.205Z,0.75
2023-04-01T16:05:02.279Z,0.50
2023-04-01T16:07:50.406Z,0.60
2023-04-01T16:10:46.233Z,0.60
2023-04-01T16:13:26.718Z,0.75
2023-04-01T16:16:04.223Z,0.65
2023-04-01T16:19:02.164Z,0.90
2023-04-01T16:21:40.341Z,0.75
2023-04-01T16:26:50.157Z,0.88
2023-04-01T16:29:25.237Z,0.63
2023-04-01T16:31:57.597Z,0.70
2023-04-01T16:34:32.249Z,0.80
2023-04-01T16:37:09.113Z,0.77
2023-04-01T16:39:47.321Z,0.88
2023-04-01T16:44:52.578Z,0.88
2023-04-01T16:47:24.124Z,1.13
2023-04-01T16:49:56.542Z,0.90
2023-04-01T16:52:45.844Z,0.80
2023-04-01T16:55:18.733Z,1.10
2023-04-01T16:57:52.888Z,0.88
2023-04-01T17:00:28.311Z,0.82
2023-04-01T17:03:06.285Z,0.88
2023-04-01T17:05:44.256Z,0.80
2023-04-01T17:08:22.479Z,0.85
2023-04-01T17:13:36.157Z,0.63
2023-04-01T17:16:20.189Z,1.02
2023-04-01T17:18:55.307Z,1.35
2023-04-01T17:21:29.512Z,0.85
2023-04-01T17:24:08.310Z,1.08
2023-04-01T17:26:40.839Z,0.70
2023-04-01T17:29:20.083Z,0.80
2023-04-01T17:31:55.120Z,1.10
2023-04-01T17:34:44.846Z,1.10
2023-04-01T17:37:31.058Z,0.68
2023-04-01T17:40:10.119Z,0.90
2023-04-01T17:42:45.666Z,0.98
2023-04-01T17:45:24.447Z,1.00
2023-04-01T17:48:02.317Z,0.80
2023-04-01T17:50:44.193Z,1.10
2023-04-01T17:53:25.387Z,1.15
2023-04-01T17:56:11.121Z,0.70
2023-04-01T17:58:47.623Z,1.27
2023-04-01T18:01:28.519Z,0.93
2023-04-01T18:04:24.130Z,1.05
2023-04-01T18:07:16.679Z,0.98
2023-04-01T18:09:55.084Z,1.17
2023-04-01T18:12:33.418Z,1.35
2023-04-01T18:15:21.206Z,1.05
2023-04-01T18:18:03.108Z,1.15
2023-04-01T18:20:42.822Z,1.83
2023-04-01T18:23:22.680Z,0.88
2023-04-01T18:25:54.476Z,1.63
2023-04-01T18:28:29.398Z,1.95
2023-04-01T18:31:02.649Z,2.47
2023-04-01T18:33:42.937Z,1.80
2023-04-01T18:36:19.049Z,1.67
2023-04-01T18:38:52.364Z,2.83
2023-04-01T18:41:30.914Z,4.15
2023-04-01T18:44:09.377Z,3.65
2023-04-01T18:46:42.926Z,2.13
2023-04-01T18:49:23.287Z,3.00
2023-04-01T18:51:56.871Z,1.35
2023-04-01T18:54:28.709Z,3.42
2023-04-01T18:57:05.970Z,5.13
2023-04-01T18:59:41.200Z,1.77
2023-04-01T19:02:21.729Z,2.28
2023-04-01T19:04:58.810Z,1.73
2023-04-01T19:07:49.031Z,1.30
2023-04-01T19:10:28.680Z,0.88
2023-04-01T19:13:13.278Z,1.38
2023-04-01T19:15:46.037Z,1.15
2023-04-01T19:18:41.903Z,1.10
2023-04-01T19:21:16.328Z,1.35
2023-04-01T19:24:10.813Z,1.40
2023-04-01T19:26:42.486Z,1.10
2023-04-01T19:29:24.240Z,1.10
2023-04-01T19:32:03.256Z,0.88
2023-04-01T19:34:49.473Z,1.23
2023-04-01T19:37:30.538Z,0.82
2023-04-01T19:40:13.283Z,1.08
2023-04-01T19:42:49.545Z,0.88
2023-04-01T19:45:31.422Z,0.90
2023-04-01T19:48:07.465Z,1.15
2023-04-01T19:50:41.290Z,0.82
2023-04-01T19:53:27.697Z,0.55
2023-04-01T19:56:02.976Z,0.80
2023-04-01T19:58:38.291Z,1.00
2023-04-01T20:01:10.483Z,1.33
2023-04-01T20:03:46.354Z,0.90
2023-04-01T20:06:24.159Z,0.98
2023-04-01T20:09:08.480Z,1.17
2023-04-01T20:11:49.133Z,1.35
2023-04-01T20:14:23.617Z,1.00
2023-04-01T20:16:58.005Z,1.13
2023-04-01T20:19:30.963Z,0.90
2023-04-01T20:22:02.292Z,2.80
2023-04-01T20:24:37.252Z,1.02
2023-04-01T20:27:09.804Z,0.80
2023-04-01T20:29:44.258Z,1.02
2023-04-01T20:32:30.317Z,1.00
2023-04-01T20:35:18.289Z,0.90
2023-04-01T20:37:53.705Z,1.00
2023-04-01T20:40:32.570Z,1.27
2023-04-01T20:43:34.918Z,1.10
2023-04-01T20:46:08.967Z,1.30
2023-04-01T20:49:02.420Z,0.95
2023-04-01T20:51:34.214Z,1.30
2023-04-01T20:54:20.743Z,1.20
2023-04-01T20:56:59.541Z,1.00
2023-04-01T20:59:42.868Z,0.90
2023-04-01T21:02:31.332Z,1.20
2023-04-01T21:05:48.962Z,1.40
2023-04-01T21:08:29.178Z,0.95
2023-04-01T21:11:05.785Z,0.80
2023-04-01T21:13:56.136Z,0.85
2023-04-01T21:16:35.339Z,0.95
2023-04-01T21:19:13.085Z,0.80
2023-04-01T21:21:58.706Z,0.90
2023-04-01T21:24:46.630Z,1.13
2023-04-01T21:27:28.021Z,0.80
2023-04-01T21:30:09.394Z,0.75
2023-04-01T21:32:54.867Z,1.10
2023-04-01T21:35:33.920Z,0.82
2023-04-01T21:38:13.730Z,0.90
2023-04-01T21:41:33.494Z,0.68
2023-04-01T21:44:44.896Z,0.87
2023-04-01T21:47:44.848Z,0.73
2023-04-01T21:50:30.476Z,0.60
2023-04-01T21:53:34.769Z,0.68
2023-04-01T21:56:38.321Z,0.90
2023-04-01T21:59:39.597Z,0.98
2023-04-01T22:02:37.479Z,0.63
2023-04-01T22:05:12.074Z,0.52
2023-04-01T22:07:46.575Z,0.73
2023-04-01T22:10:28.156Z,0.68
2023-04-01T22:13:01.489Z,0.68
2023-04-01T22:15:46.034Z,0.63
2023-04-01T22:18:23.154Z,0.70
2023-04-01T22:21:05.946Z,0.90
2023-04-01T22:23:38.601Z,0.80
2023-04-01T22:26:12.969Z,0.80
2023-04-01T22:28:47.980Z,0.75
2023-04-01T22:31:23.484Z,1.05
2023-04-01T22:33:59.034Z,0.68
2023-04-01T22:36:35.504Z,0.50
2023-04-01T22:39:12.883Z,0.60
2023-04-01T22:41:52.587Z,1.13
2023-04-01T22:44:31.490Z,0.60
2023-04-01T22:47:06.473Z,0.63
2023-04-01T22:49:40.808Z,0.70
2023-04-01T22:52:17.352Z,0.52
2023-04-01T22:54:48.855Z,0.80
2023-04-01T22:57:21.866Z,0.90
2023-04-01T22:59:56.860Z,0.60
2023-04-01T23:02:30.130Z,0.80
2023-04-01T23:05:01.295Z,0.65
2023-04-01T23:07:47.350Z,0.98
2023-04-01T23:10:21.679Z,0.80
2023-04-01T23:12:51.997Z,0.63
2023-04-01T23:15:21.389Z,0.77
2023-04-01T23:17:55.652Z,0.80
2023-04-01T23:20:31.272Z,0.75
2023-04-01T23:23:17.352Z,0.80
2023-04-01T23:25:55.364Z,0.70
2023-04-01T23:28:46.122Z,0.90
2023-04-01T23:31:41.802Z,0.80
2023-04-01T23:34:34.316Z,0.85
2023-04-01T23:37:07.722Z,0.60
2023-04-01T23:39:39.254Z,0.73
2023-04-01T23:42:09.509Z,0.55
2023-04-01T23:44:38.785Z,0.60
2023-04-01T23:47:10.001Z,0.60
2023-04-01T23:49:41.847Z,1.05
2023-04-01T23:52:18.900Z,0.60
2023-04-01T23:54:52.910Z,0.90
2023-04-01T23:57:23.874Z,1.10
